Terminal Aerodrome Forecast
Issued by NWS

Home | Current Version | Previous Version | Text Only | Print | Product List | Glossary On
Versions: 1 2 3 4 5 6 7 8 9 10 11 12 13 14 15 16 17 18 19 20 21 22 23 24
000
FTUS43 KDLH 070500
TAFBRD
TAF
KBRD 070520Z 0706/0806 14008KT P6SM VCSH SCT035 BKN060
      WS015/18040KT
     FM070900 15009KT 4SM -SHRA BR BKN025 WS015/18040KT
     FM071300 15011KT P6SM VCSH BKN040
     FM071600 18012KT 5SM -SHRA BR OVC015 PROB30 0718/0722 2SM -TSRA
      BR BKN012CB
     FM072300 VRB03KT 5SM -SHRA BR OVC025
     FM080200 30012KT P6SM VCSH BKN015=

USA.gov is the U.S. government's official web portal to all federal, state and local government web resources and services.